Time;durP1;ratioP1;P1;durP2;ratioP2;P2;SDS_P1;SDS_P2;PMS_P1;PMS_P2;Temp;Humidity;BMP_temperature;BMP_pressure;BME280_temperature;BME280_humidity;BME280_pressure;Samples;Min_cycle;Max_cycle;Signal;HPM_P1;HPM_P2
2022/08/25 00:00:36;;;;;;;8.13;6.63;;;;;;;22.40;66.12;101412.66;4962121;28;20030;-93
2022/08/25 00:03:02;;;;;;;7.80;6.38;;;;;;;22.37;66.37;101406.53;4972783;28;20089;-92
2022/08/25 00:05:30;;;;;;;19.73;14.93;;;;;;;22.35;66.31;101415.78;4968168;28;20033;-92
2022/08/25 00:07:56;;;;;;;13.98;11.68;;;;;;;22.30;66.41;101416.22;4972396;28;20026;-92
2022/08/25 00:10:21;;;;;;;11.15;9.90;;;;;;;22.25;67.07;101407.66;4966864;28;20469;-91
2022/08/25 00:12:46;;;;;;;6.57;5.97;;;;;;;22.13;67.10;101401.47;4968643;28;20063;-91
2022/08/25 00:15:12;;;;;;;7.05;6.38;;;;;;;22.11;66.86;101406.16;4963205;28;20054;-90
2022/08/25 00:17:38;;;;;;;6.88;6.18;;;;;;;22.09;67.54;101410.84;4966869;28;20037;-90
2022/08/25 00:20:05;;;;;;;8.52;6.50;;;;;;;22.08;67.45;101409.16;4971606;28;20043;-94
2022/08/25 00:22:30;;;;;;;6.85;5.97;;;;;;;22.00;67.63;101405.41;4970809;28;20531;-93
2022/08/25 00:24:56;;;;;;;8.98;5.85;;;;;;;21.92;68.15;101411.53;4955478;28;20035;-94
2022/08/25 00:27:21;;;;;;;9.25;6.00;;;;;;;21.89;67.98;101409.94;4971229;28;20033;-92
2022/08/25 00:29:46;;;;;;;6.88;6.00;;;;;;;21.75;68.79;101409.47;4970855;28;20026;-91
2022/08/25 00:32:12;;;;;;;6.53;5.93;;;;;;;21.67;68.98;101407.44;4971573;28;20031;-92
2022/08/25 00:34:38;;;;;;;6.88;6.28;;;;;;;21.64;69.19;101411.25;4971885;28;20034;-92
2022/08/25 00:37:08;;;;;;;6.85;6.25;;;;;;;21.58;69.51;101410.97;4972976;28;20100;-92
2022/08/25 00:39:34;;;;;;;8.35;6.60;;;;;;;21.56;69.22;101410.22;4951466;28;20030;-92
2022/08/25 00:42:00;;;;;;;8.20;6.35;;;;;;;21.45;69.60;101421.19;4970518;28;20125;-92
2022/08/25 00:44:28;;;;;;;6.93;6.32;;;;;;;21.40;70.56;101413.41;4969875;28;20117;-93
2022/08/25 00:46:56;;;;;;;8.55;6.40;;;;;;;21.34;70.44;101417.53;4965196;28;20066;-92
2022/08/25 00:49:32;;;;;;;6.35;5.75;;;;;;;21.29;70.54;101424.31;4967946;28;20400;-93
2022/08/25 00:52:12;;;;;;;9.85;6.45;;;;;;;21.30;69.94;101421.47;4971946;28;20029;-92
2022/08/25 00:54:43;;;;;;;7.75;7.00;;;;;;;21.25;70.76;101414.75;4964782;28;20117;-92
2022/08/25 00:57:11;;;;;;;8.75;7.15;;;;;;;21.22;70.78;101420.41;4970342;28;20090;-92
2022/08/25 00:59:37;;;;;;;7.80;6.72;;;;;;;21.14;71.39;101426.50;4968438;28;20034;-92
2022/08/25 01:02:05;;;;;;;7.35;6.65;;;;;;;21.08;71.26;101421.63;4970851;28;20037;-91
2022/08/25 01:04:30;;;;;;;15.07;6.82;;;;;;;21.11;71.58;101415.94;4965349;28;20027;-93
2022/08/25 01:06:57;;;;;;;7.05;6.35;;;;;;;21.10;71.01;101419.63;4968566;28;20772;-91
2022/08/25 01:09:23;;;;;;;10.40;6.70;;;;;;;21.13;71.21;101419.38;4971734;28;20035;-91
2022/08/25 01:11:48;;;;;;;9.05;6.70;;;;;;;21.06;71.01;101408.19;4974120;28;20034;-94
2022/08/25 01:14:16;;;;;;;7.20;6.40;;;;;;;21.09;71.14;101412.50;4952374;28;20035;-93
2022/08/25 01:16:42;;;;;;;10.77;7.07;;;;;;;21.06;71.27;101413.63;4957342;28;20042;-90
2022/08/25 01:19:10;;;;;;;10.20;6.07;;;;;;;21.02;71.61;101414.00;4986856;28;20035;-92
2022/08/25 01:21:39;;;;;;;8.20;6.50;;;;;;;20.98;71.66;101408.00;4977252;28;20022;-91
2022/08/25 01:24:05;;;;;;;8.63;7.20;;;;;;;21.00;71.54;101413.31;4982133;28;20050;-92
2022/08/25 01:26:33;;;;;;;7.47;6.72;;;;;;;21.00;71.67;101410.59;4967855;28;20032;-91
2022/08/25 01:29:20;;;;;;;8.65;7.22;;;;;;;20.92;71.50;101408.53;4982164;28;20054;-90
2022/08/25 01:31:51;;;;;;;12.32;7.43;;;;;;;20.91;71.56;101414.94;4981088;28;20404;-90
2022/08/25 01:34:18;;;;;;;9.00;7.03;;;;;;;20.88;71.45;101412.50;4983749;28;20037;-91
2022/08/25 01:36:44;;;;;;;9.30;7.50;;;;;;;20.81;71.46;101414.00;4983243;28;20030;-92
2022/08/25 01:39:11;;;;;;;8.50;7.40;;;;;;;20.80;71.42;101407.75;4969110;28;20097;-92
2022/08/25 01:42:01;;;;;;;10.48;7.88;;;;;;;20.80;70.63;101423.13;4982979;28;20094;-91
2022/08/25 01:44:26;;;;;;;9.73;7.60;;;;;;;20.72;71.14;101403.97;4977997;28;20539;-92
2022/08/25 01:46:53;;;;;;;9.60;8.57;;;;;;;20.78;70.99;101409.72;4972403;28;20037;-91
2022/08/25 01:49:19;;;;;;;8.45;7.35;;;;;;;20.72;71.23;101415.66;4965482;28;20477;-92
2022/08/25 01:52:10;;;;;;;10.05;8.20;;;;;;;20.74;70.33;101419.09;4975073;28;20038;-92
2022/08/25 01:54:36;;;;;;;9.05;8.15;;;;;;;20.70;70.66;101411.38;4977957;28;20078;-92
2022/08/25 01:57:02;;;;;;;9.40;7.78;;;;;;;20.60;70.30;101404.00;4977892;28;20038;-91
2022/08/25 01:59:27;;;;;;;11.07;7.93;;;;;;;20.67;70.17;101408.91;4980000;28;20132;-91
2022/08/25 02:01:53;;;;;;;9.30;8.25;;;;;;;20.66;69.78;101409.91;4970533;28;20031;-91
2022/08/25 02:04:18;;;;;;;9.13;8.23;;;;;;;20.69;68.84;101409.63;4966996;28;20022;-90
2022/08/25 02:06:44;;;;;;;9.75;8.73;;;;;;;20.61;69.10;101407.59;4974658;28;20050;-91
2022/08/25 02:09:13;;;;;;;12.00;8.85;;;;;;;20.58;68.85;101402.44;4975106;28;20503;-91
2022/08/25 02:11:40;;;;;;;12.60;8.70;;;;;;;20.54;67.90;101409.09;4977246;28;20062;-91
2022/08/25 02:14:08;;;;;;;10.90;8.55;;;;;;;20.52;68.52;101405.63;4971852;28;20026;-92
2022/08/25 02:16:36;;;;;;;9.60;8.43;;;;;;;20.49;67.46;101409.47;4967563;28;20037;-92
2022/08/25 02:19:05;;;;;;;13.30;9.98;;;;;;;20.43;67.40;101406.38;4957601;28;20047;-90
2022/08/25 02:21:31;;;;;;;10.57;9.30;;;;;;;20.45;67.25;101405.28;4965456;28;20031;-92
2022/08/25 02:23:57;;;;;;;8.95;8.05;;;;;;;20.44;67.94;101400.88;4973861;28;20061;-90
2022/08/25 02:26:22;;;;;;;10.60;9.10;;;;;;;20.44;67.48;101408.97;4969302;28;20042;-91
2022/08/25 02:28:49;;;;;;;10.80;9.30;;;;;;;20.42;66.80;101407.38;4967914;28;20114;-92
2022/08/25 02:31:16;;;;;;;10.57;9.48;;;;;;;20.42;66.30;101412.78;4975624;28;20034;-91
2022/08/25 02:33:42;;;;;;;10.55;9.50;;;;;;;20.37;66.34;101405.06;4970749;28;20551;-91
2022/08/25 02:36:08;;;;;;;14.15;10.38;;;;;;;20.32;66.68;101408.16;4964564;28;20019;-90
2022/08/25 02:38:34;;;;;;;11.40;10.07;;;;;;;20.33;66.31;101400.91;4969304;28;20031;-90
2022/08/25 02:41:00;;;;;;;12.55;10.00;;;;;;;20.32;66.29;101407.28;4973142;28;20114;-90
2022/08/25 02:43:27;;;;;;;13.07;10.07;;;;;;;20.31;66.55;101410.97;4969649;28;20117;-91
2022/08/25 02:45:53;;;;;;;11.85;10.02;;;;;;;20.24;67.05;101405.22;4973527;28;20504;-91
2022/08/25 02:48:18;;;;;;;12.30;10.30;;;;;;;20.22;67.21;101401.78;4972885;28;20393;-91
2022/08/25 02:50:50;;;;;;;14.52;11.52;;;;;;;20.19;66.29;101396.66;4973964;28;20031;-90
2022/08/25 02:53:16;;;;;;;12.63;10.73;;;;;;;20.19;66.16;101398.47;4990263;28;20033;-91
2022/08/25 02:55:41;;;;;;;11.38;10.18;;;;;;;20.21;67.25;101400.06;4969717;28;20094;-91
2022/08/25 02:58:07;;;;;;;12.20;10.88;;;;;;;20.20;66.96;101392.94;4973592;28;20027;-89
2022/08/25 03:00:34;;;;;;;11.55;10.45;;;;;;;20.16;66.70;101391.50;4970141;28;20038;-90
2022/08/25 03:02:59;;;;;;;11.43;10.23;;;;;;;20.14;66.91;101388.88;4970775;28;20039;-91
2022/08/25 03:05:25;;;;;;;12.10;10.75;;;;;;;20.05;66.67;101380.69;4969134;28;20575;-91
2022/08/25 03:07:50;;;;;;;15.98;11.32;;;;;;;20.01;66.67;101381.94;4972064;28;20038;-92
2022/08/25 03:10:17;;;;;;;13.60;10.82;;;;;;;20.00;65.89;101391.03;4974725;28;20023;-92
2022/08/25 03:12:44;;;;;;;11.60;10.50;;;;;;;19.98;65.91;101382.16;4990627;28;20026;-92
2022/08/25 03:15:15;;;;;;;13.85;11.48;;;;;;;19.90;65.76;101370.16;4970157;28;20081;-90
2022/08/25 03:17:41;;;;;;;13.43;11.93;;;;;;;19.94;65.30;101375.31;4971470;28;20191;-90
2022/08/25 03:20:07;;;;;;;13.43;12.05;;;;;;;19.94;65.45;101369.91;4987592;28;20042;-91
2022/08/25 03:22:32;;;;;;;12.27;10.95;;;;;;;19.95;65.23;101375.19;4989127;28;20417;-91
2022/08/25 03:27:43;;;;;;;17.95;12.15;;;;;;;19.87;64.78;101375.81;4941313;28;20042;-91
2022/08/25 03:30:10;;;;;;;13.90;12.10;;;;;;;19.89;64.88;101372.97;4968828;28;20154;-92
2022/08/25 03:32:35;;;;;;;13.85;11.93;;;;;;;19.89;64.82;101368.44;4962541;28;20034;-91
2022/08/25 03:35:00;;;;;;;14.23;11.65;;;;;;;19.86;64.42;101371.41;4975120;28;20030;-90
2022/08/25 03:37:26;;;;;;;14.27;11.77;;;;;;;19.84;64.30;101365.25;4972486;28;20015;-91
2022/08/25 03:39:51;;;;;;;14.95;12.13;;;;;;;19.83;64.53;101360.84;4974675;28;20042;-91
2022/08/25 03:42:17;;;;;;;14.52;11.73;;;;;;;19.81;64.49;101365.50;4973230;28;20023;-90
2022/08/25 03:44:42;;;;;;;17.98;11.18;;;;;;;19.81;64.08;101361.94;4974772;28;20062;-90
2022/08/25 03:47:07;;;;;;;13.98;11.52;;;;;;;19.76;63.91;101361.47;4973868;28;20023;-89
2022/08/25 03:49:33;;;;;;;13.30;11.68;;;;;;;19.73;63.50;101356.31;4973902;28;20090;-91
2022/08/25 03:51:58;;;;;;;15.68;10.93;;;;;;;19.77;63.88;101364.06;4972312;28;20027;-91
2022/08/25 03:54:25;;;;;;;16.65;11.02;;;;;;;19.74;63.49;101353.50;4970936;28;20194;-92
2022/08/25 03:56:50;;;;;;;12.90;10.48;;;;;;;19.75;63.50;101357.91;4965409;28;20035;-92
2022/08/25 03:59:16;;;;;;;12.25;11.05;;;;;;;19.72;64.16;101351.88;4970343;28;20026;-91
2022/08/25 04:01:43;;;;;;;13.85;10.52;;;;;;;19.70;64.48;101356.56;4972812;28;20089;-89
2022/08/25 04:04:10;;;;;;;14.65;11.35;;;;;;;19.67;64.81;101349.56;4961900;28;20428;-89
2022/08/25 04:06:38;;;;;;;13.65;10.63;;;;;;;19.65;65.07;101347.00;4971915;28;20134;-90
2022/08/25 04:09:03;;;;;;;12.43;10.13;;;;;;;19.61;64.20;101342.84;4962659;28;20038;-91
2022/08/25 04:11:28;;;;;;;14.00;10.20;;;;;;;19.58;64.56;101339.47;4968558;28;20398;-91
2022/08/25 04:13:56;;;;;;;13.88;9.32;;;;;;;19.51;64.40;101338.25;4969985;28;20037;-90
2022/08/25 04:16:24;;;;;;;11.35;9.60;;;;;;;19.50;64.70;101339.25;4972578;28;20444;-91
2022/08/25 04:18:51;;;;;;;12.90;9.85;;;;;;;19.49;64.78;101353.72;4968336;28;20527;-90
2022/08/25 04:21:18;;;;;;;12.52;10.30;;;;;;;19.41;65.15;101351.66;4972054;28;20408;-89
2022/08/25 04:23:46;;;;;;;13.93;9.23;;;;;;;19.41;65.05;101351.66;4985604;28;20476;-89
2022/08/25 04:26:15;;;;;;;11.07;9.40;;;;;;;19.40;64.28;101350.78;4971141;28;20023;-89
2022/08/25 04:28:42;;;;;;;14.95;8.95;;;;;;;19.39;64.17;101359.00;4972506;28;20050;-90
2022/08/25 04:31:09;;;;;;;11.85;8.82;;;;;;;19.32;64.27;101345.13;4966474;28;20042;-90
2022/08/25 04:33:37;;;;;;;14.32;8.90;;;;;;;19.32;64.46;101352.38;4973953;28;20038;-90
2022/08/25 04:36:05;;;;;;;9.70;8.70;;;;;;;19.30;64.18;101344.38;4972934;28;20144;-91
2022/08/25 04:38:31;;;;;;;10.50;8.52;;;;;;;19.29;63.68;101329.19;4971137;28;20204;-91
2022/08/25 04:41:03;;;;;;;11.95;8.73;;;;;;;19.30;63.38;101333.59;4975690;28;20138;-91
2022/08/25 04:43:30;;;;;;;10.63;8.43;;;;;;;19.29;63.26;101333.72;4974732;28;20416;-87
2022/08/25 04:45:55;;;;;;;12.00;7.80;;;;;;;19.30;63.02;101327.34;4975383;28;20034;-91
2022/08/25 04:48:21;;;;;;;9.35;8.20;;;;;;;19.27;62.42;101322.19;4967234;28;20497;-91
2022/08/25 04:50:47;;;;;;;8.95;7.55;;;;;;;19.28;62.69;101329.31;4973498;28;20023;-90
2022/08/25 04:53:12;;;;;;;9.60;7.10;;;;;;;19.23;63.11;101315.31;4971006;28;20035;-90
2022/08/25 04:55:44;;;;;;;8.48;7.18;;;;;;;19.25;63.57;101326.84;4971758;28;20050;-91
2022/08/25 04:58:09;;;;;;;12.80;7.50;;;;;;;19.24;63.54;101328.69;4970906;28;20358;-91
2022/08/25 05:00:36;;;;;;;11.23;7.85;;;;;;;19.24;63.13;101322.44;4974771;28;20113;-90
2022/08/25 05:03:02;;;;;;;8.63;7.40;;;;;;;19.27;63.32;101330.28;4973358;28;20054;-89
2022/08/25 05:05:28;;;;;;;7.78;6.82;;;;;;;19.26;63.86;101329.41;4987227;28;20042;-90
2022/08/25 05:07:53;;;;;;;9.15;7.72;;;;;;;19.26;62.39;101329.41;4987605;28;20139;-90
2022/08/25 05:10:19;;;;;;;10.15;7.22;;;;;;;19.28;61.50;101322.06;4983704;28;20499;-91
2022/08/25 05:12:44;;;;;;;9.85;6.72;;;;;;;19.27;61.30;101322.19;4982805;28;20046;-90
2022/08/25 05:17:54;;;;;;;10.13;6.63;;;;;;;19.37;61.27;101339.38;4974069;28;20045;-91
2022/08/25 05:20:20;;;;;;;7.80;6.30;;;;;;;19.37;61.55;101342.94;4975832;28;20027;-90
2022/08/25 05:22:45;;;;;;;6.90;6.20;;;;;;;19.42;61.60;101348.81;4975675;28;20060;-91
2022/08/25 05:25:11;;;;;;;8.60;6.40;;;;;;;19.42;60.65;101347.94;4956998;28;20027;-91
2022/08/25 05:27:36;;;;;;;9.10;6.60;;;;;;;19.48;60.77;101352.00;4970869;28;20031;-91
2022/08/25 05:30:02;;;;;;;8.50;6.05;;;;;;;19.54;60.21;101351.50;4979687;28;20030;-90
2022/08/25 05:32:27;;;;;;;9.18;6.28;;;;;;;19.53;60.70;101347.97;4985254;28;20037;-89
2022/08/25 05:34:53;;;;;;;8.60;6.07;;;;;;;19.60;60.86;101354.56;4984846;28;20169;-91
2022/08/25 05:37:18;;;;;;;9.80;6.65;;;;;;;19.62;59.83;101354.50;4957660;28;20039;-90
2022/08/25 05:39:43;;;;;;;9.57;6.20;;;;;;;19.68;59.51;101355.81;4974319;28;20043;-86
2022/08/25 05:42:09;;;;;;;8.88;6.57;;;;;;;19.71;59.16;101348.34;4962079;28;20042;-90
2022/08/25 05:44:34;;;;;;;9.25;6.00;;;;;;;19.80;59.99;101355.69;4966296;28;20509;-88
2022/08/25 05:47:00;;;;;;;11.60;6.32;;;;;;;19.89;57.98;101354.06;4965382;28;20094;-88
2022/08/25 05:49:26;;;;;;;9.75;6.10;;;;;;;20.00;58.67;101358.59;4964958;28;20049;-88
2022/08/25 05:51:51;;;;;;;10.52;6.28;;;;;;;20.17;57.79;101352.66;4970159;28;20035;-88
2022/08/25 05:54:17;;;;;;;7.13;6.22;;;;;;;20.42;57.26;101364.13;4968130;28;20031;-88
2022/08/25 05:56:44;;;;;;;8.60;5.93;;;;;;;20.64;55.85;101370.31;4966035;28;20038;-88
2022/08/25 05:59:09;;;;;;;9.07;6.13;;;;;;;20.83;55.56;101372.31;4974076;28;20123;-89
2022/08/25 06:04:19;;;;;;;10.18;6.00;;;;;;;21.19;55.05;101370.09;4968477;28;20060;-89
2022/08/25 06:06:45;;;;;;;10.13;6.13;;;;;;;21.29;54.43;101368.31;4969323;28;20031;-89
2022/08/25 06:09:11;;;;;;;12.30;6.38;;;;;;;21.39;54.33;101368.38;4969210;28;20085;-88
2022/08/25 06:11:38;;;;;;;8.88;6.03;;;;;;;21.52;54.15;101376.28;4967384;28;20488;-88
2022/08/25 06:14:04;;;;;;;9.00;6.10;;;;;;;21.70;53.01;101366.53;4969247;28;20027;-90
2022/08/25 06:16:29;;;;;;;7.38;5.38;;;;;;;21.82;53.04;101359.13;4971876;28;20062;-90
2022/08/25 06:18:55;;;;;;;7.82;5.43;;;;;;;21.98;53.83;101374.88;4964738;28;20113;-88
2022/08/25 06:21:20;;;;;;;11.15;5.47;;;;;;;22.12;52.69;101369.06;4968344;28;20030;-90
2022/08/25 06:23:45;;;;;;;7.15;5.38;;;;;;;22.28;52.91;101363.97;4950749;28;20042;-90
2022/08/25 06:26:12;;;;;;;7.05;5.57;;;;;;;22.49;52.15;101361.13;4968293;28;20039;-89
2022/08/25 06:28:37;;;;;;;9.43;5.53;;;;;;;22.68;53.16;101373.81;4961497;28;20042;-90
2022/08/25 06:31:03;;;;;;;9.48;5.72;;;;;;;22.83;50.28;101357.97;4954262;28;20161;-89
2022/08/25 06:33:28;;;;;;;8.93;5.32;;;;;;;22.99;50.31;101370.94;4949065;28;20035;-88
2022/08/25 06:35:55;;;;;;;8.05;4.93;;;;;;;23.20;50.32;101382.50;4952321;28;20037;-90
2022/08/25 06:38:20;;;;;;;12.10;5.20;;;;;;;23.35;49.00;101364.72;4968938;28;20078;-89
2022/08/25 06:40:47;;;;;;;9.68;4.75;;;;;;;23.50;48.90;101367.81;4971238;28;20039;-88
2022/08/25 06:43:12;;;;;;;8.00;4.90;;;;;;;23.62;48.46;101368.47;4953055;28;20026;-90
2022/08/25 06:45:37;;;;;;;11.73;4.82;;;;;;;23.81;48.14;101381.13;4956123;28;20122;-91
2022/08/25 06:48:03;;;;;;;11.30;5.55;;;;;;;23.91;48.92;101367.47;4974229;28;20062;-91
2022/08/25 06:50:28;;;;;;;5.32;4.22;;;;;;;24.13;47.66;101383.38;4971402;28;20137;-91
2022/08/25 06:52:54;;;;;;;8.82;4.50;;;;;;;24.31;46.91;101372.53;4972010;28;20037;-90
2022/08/25 06:55:19;;;;;;;6.50;4.80;;;;;;;24.60;47.55;101373.16;4955977;28;20019;-90
2022/08/25 06:57:45;;;;;;;7.03;4.53;;;;;;;24.73;47.21;101377.34;4972011;28;20034;-91
2022/08/25 07:00:11;;;;;;;13.38;4.55;;;;;;;25.01;46.42;101373.50;4971993;28;20601;-92
2022/08/25 07:02:37;;;;;;;5.55;4.47;;;;;;;25.13;44.25;101363.25;4971117;28;20496;-90
2022/08/25 07:05:03;;;;;;;8.73;4.00;;;;;;;25.42;44.06;101368.34;4971825;28;20042;-92
2022/08/25 07:07:28;;;;;;;9.23;4.30;;;;;;;25.52;43.91;101368.22;4951054;28;20019;-85
2022/08/25 07:09:53;;;;;;;6.82;4.30;;;;;;;25.73;45.08;101360.47;4964290;28;20031;-86
2022/08/25 07:12:20;;;;;;;9.60;4.68;;;;;;;25.88;42.75;101355.28;4967105;28;20027;-87
2022/08/25 07:14:46;;;;;;;5.53;4.10;;;;;;;26.09;43.82;101360.28;4971361;28;20038;-87
2022/08/25 07:17:12;;;;;;;8.18;4.30;;;;;;;26.30;43.34;101357.94;4970009;28;20035;-87
2022/08/25 07:19:37;;;;;;;9.27;4.30;;;;;;;26.48;41.80;101352.34;4973114;28;20047;-87
2022/08/25 07:22:02;;;;;;;5.95;3.97;;;;;;;26.50;41.27;101360.38;4967279;28;20027;-87
2022/08/25 07:24:28;;;;;;;6.30;4.38;;;;;;;26.71;40.78;101358.00;4966533;28;20027;-87
2022/08/25 07:26:53;;;;;;;5.22;3.92;;;;;;;26.90;41.06;101355.94;4962658;28;20142;-87
2022/08/25 07:29:22;;;;;;;8.50;3.95;;;;;;;27.32;40.69;101347.50;4968366;28;20397;-86
2022/08/25 07:31:48;;;;;;;8.18;4.72;;;;;;;27.80;39.09;101365.66;4950965;28;20246;-85
2022/08/25 07:36:58;;;;;;;9.85;3.85;;;;;;;28.54;37.82;101346.88;4967964;28;20459;-86
2022/08/25 07:39:25;;;;;;;7.32;4.78;;;;;;;28.81;37.47;101350.09;4965882;28;20109;-86
2022/08/25 07:41:51;;;;;;;7.18;3.83;;;;;;;29.06;35.79;101353.50;4970430;28;20633;-86
2022/08/25 07:44:17;;;;;;;9.68;4.15;;;;;;;29.29;35.19;101354.25;4965822;28;20128;-88
2022/08/25 07:46:42;;;;;;;7.82;3.60;;;;;;;29.37;35.49;101345.09;4954144;28;20068;-86
2022/08/25 07:49:08;;;;;;;10.00;4.00;;;;;;;29.73;35.68;101353.41;4966227;28;20030;-86
2022/08/25 07:51:33;;;;;;;8.70;3.50;;;;;;;30.15;34.33;101353.72;4966810;28;20035;-86
2022/08/25 07:53:59;;;;;;;7.65;3.47;;;;;;;30.31;33.50;101344.38;4966259;28;20465;-86
2022/08/25 07:56:24;;;;;;;8.18;3.92;;;;;;;30.51;33.68;101337.19;4964015;28;20106;-88
2022/08/25 07:58:50;;;;;;;6.07;3.63;;;;;;;31.12;33.45;101348.50;4951742;28;20125;-87
2022/08/25 08:01:23;;;;;;;7.25;3.65;;;;;;;31.43;32.06;101347.22;4965547;28;20023;-87
2022/08/25 08:03:49;;;;;;;7.53;3.10;;;;;;;31.79;31.49;101348.91;4968703;28;20023;-87
2022/08/25 08:06:17;;;;;;;6.70;3.30;;;;;;;32.01;31.90;101336.72;4968408;28;20546;-87
2022/08/25 08:08:44;;;;;;;5.03;3.35;;;;;;;32.32;32.21;101346.34;4947522;28;20027;-87
2022/08/25 08:11:17;;;;;;;8.65;4.25;;;;;;;32.63;31.72;101338.34;4971629;28;20125;-85
2022/08/25 08:13:43;;;;;;;6.78;4.30;;;;;;;32.93;29.95;101336.00;4967314;28;20045;-86
2022/08/25 08:16:10;;;;;;;6.25;3.42;;;;;;;33.14;29.71;101340.44;4968431;28;20031;-86
2022/08/25 08:18:36;;;;;;;6.38;3.30;;;;;;;33.11;28.72;101340.88;4969701;28;20042;-87
2022/08/25 08:21:02;;;;;;;5.35;2.90;;;;;;;33.26;28.07;101331.50;4968866;28;20033;-86
2022/08/25 08:23:28;;;;;;;9.20;3.42;;;;;;;33.35;28.84;101335.72;4952281;28;20042;-86
2022/08/25 08:25:55;;;;;;;6.43;3.42;;;;;;;33.76;27.73;101337.31;4950877;28;20031;-86
2022/08/25 08:28:21;;;;;;;7.43;2.92;;;;;;;34.06;30.71;101349.50;4965603;28;20035;-85
2022/08/25 08:30:46;;;;;;;6.57;3.25;;;;;;;34.47;27.22;101339.88;4968809;28;20031;-86
2022/08/25 08:33:11;;;;;;;7.72;3.13;;;;;;;34.93;26.46;101339.53;4975339;28;20031;-87
2022/08/25 08:35:36;;;;;;;6.72;3.00;;;;;;;35.36;26.49;101344.22;4977667;28;20117;-87
2022/08/25 08:38:04;;;;;;;25.15;20.40;;;;;;;35.96;29.50;101337.13;4975781;28;20121;-86
2022/08/25 08:40:38;;;;;;;8.23;3.78;;;;;;;35.98;25.51;101335.81;4973945;28;20477;-86
2022/08/25 08:43:10;;;;;;;4.93;3.00;;;;;;;36.25;26.74;101332.69;4975598;28;20118;-86
2022/08/25 08:45:42;;;;;;;5.17;3.30;;;;;;;36.79;26.49;101328.00;4950776;28;20359;-86
2022/08/25 08:48:16;;;;;;;5.15;3.33;;;;;;;36.97;24.30;101336.22;4965761;28;20020;-86
2022/08/25 08:50:57;;;;;;;4.50;2.90;;;;;;;36.99;25.36;101338.75;4968750;28;20046;-86
2022/08/25 08:53:28;;;;;;;4.95;4.03;;;;;;;37.46;25.03;101336.81;4966304;28;20385;-86
2022/08/25 08:55:59;;;;;;;5.60;3.58;;;;;;;37.26;24.39;101336.31;4961387;28;20602;-86
2022/08/25 08:58:41;;;;;;;6.38;3.30;;;;;;;37.26;26.50;101334.38;4971658;28;20287;-86
2022/08/25 09:01:11;;;;;;;6.38;3.10;;;;;;;37.49;24.47;101333.50;4969755;28;20267;-87
2022/08/25 09:03:45;;;;;;;6.25;3.03;;;;;;;37.84;25.44;101324.25;4971765;28;20058;-85
2022/08/25 09:06:25;;;;;;;3.67;3.08;;;;;;;38.30;23.61;101331.53;4968351;28;20141;-85
2022/08/25 09:08:54;;;;;;;7.05;3.30;;;;;;;38.66;22.10;101329.38;4955146;28;20678;-85
2022/08/25 09:11:33;;;;;;;5.45;3.38;;;;;;;39.49;22.60;101338.72;4950790;28;20027;-86
2022/08/25 09:14:11;;;;;;;6.55;3.67;;;;;;;40.01;20.83;101343.00;4956257;28;20062;-86
2022/08/25 09:16:55;;;;;;;6.55;3.90;;;;;;;40.29;21.74;101337.16;4938981;28;20027;-86
2022/08/25 09:20:01;;;;;;;5.95;4.47;;;;;;;40.87;22.43;101333.78;4965976;28;20130;-86
2022/08/25 09:23:01;;;;;;;5.35;3.17;;;;;;;41.42;21.04;101338.88;4962799;28;20385;-86
2022/08/25 09:25:44;;;;;;;5.90;2.97;;;;;;;41.57;20.11;101334.50;4967561;28;20045;-87
2022/08/25 09:28:22;;;;;;;4.05;2.92;;;;;;;41.52;17.65;101329.72;4967605;28;20109;-85
2022/08/25 09:30:56;;;;;;;5.40;2.80;;;;;;;41.50;18.68;101326.34;4968673;28;20034;-88
2022/08/25 09:33:24;;;;;;;4.53;3.00;;;;;;;41.50;18.12;101324.41;4961689;28;20031;-87
2022/08/25 09:35:51;;;;;;;4.82;2.70;;;;;;;41.83;17.64;101330.69;4976048;28;20015;-85
2022/08/25 09:38:16;;;;;;;5.07;2.70;;;;;;;42.47;18.78;101330.25;4982161;28;20026;-87
2022/08/25 09:40:46;;;;;;;7.43;2.90;;;;;;;42.69;19.84;101324.41;4990347;28;20045;-86
2022/08/25 09:43:41;;;;;;;5.10;3.10;;;;;;;43.01;18.07;101332.44;4988796;28;20030;-87
2022/08/25 09:46:07;;;;;;;6.43;3.38;;;;;;;42.73;19.37;101327.47;4977677;28;20473;-87
2022/08/25 09:48:41;;;;;;;4.83;2.70;;;;;;;41.84;17.57;101331.53;4977073;28;20117;-85
2022/08/25 09:51:30;;;;;;;8.18;6.57;;;;;;;41.28;19.09;101329.31;4973038;28;20118;-86
2022/08/25 09:53:59;;;;;;;4.40;3.10;;;;;;;40.82;18.47;101318.66;4973905;28;20595;-86
2022/08/25 09:56:27;;;;;;;5.57;2.75;;;;;;;41.30;18.37;101325.16;4969012;28;20046;-85
2022/08/25 09:58:54;;;;;;;9.90;3.08;;;;;;;41.93;19.33;101311.16;4971244;28;20031;-86
2022/08/25 10:01:22;;;;;;;4.13;2.80;;;;;;;42.21;18.17;101306.97;4972298;28;20038;-86
2022/08/25 10:03:57;;;;;;;6.15;3.10;;;;;;;41.96;18.52;101305.00;4971955;28;20038;-84
2022/08/25 10:06:24;;;;;;;3.58;3.05;;;;;;;41.62;17.52;101310.19;4968329;28;20489;-87
2022/08/25 10:08:55;;;;;;;3.42;2.72;;;;;;;41.91;16.97;101304.16;4972615;28;20030;-85
2022/08/25 10:11:42;;;;;;;5.35;2.90;;;;;;;42.22;18.74;101294.75;4973433;28;20070;-87
2022/08/25 10:14:19;;;;;;;4.25;2.78;;;;;;;42.72;17.00;101295.00;4969389;28;20152;-86
2022/08/25 10:16:46;;;;;;;4.13;2.92;;;;;;;42.65;16.80;101286.91;4974175;28;20094;-86
2022/08/25 10:19:22;;;;;;;4.13;2.65;;;;;;;42.93;17.07;101291.03;4968045;28;20043;-87
2022/08/25 10:22:06;;;;;;;4.15;3.75;;;;;;;42.57;18.81;101283.81;4973735;28;20031;-87
2022/08/25 10:24:33;;;;;;;5.50;3.05;;;;;;;42.16;18.01;101278.19;4956626;28;20047;-86
2022/08/25 10:27:21;;;;;;;3.60;3.03;;;;;;;42.29;17.47;101274.84;4973365;28;20038;-86
2022/08/25 10:30:16;;;;;;;5.10;2.47;;;;;;;42.86;16.57;101279.31;4964817;28;20074;-85
2022/08/25 10:32:53;;;;;;;2.72;2.50;;;;;;;42.85;15.97;101283.22;4972094;28;20026;-86
2022/08/25 10:35:39;;;;;;;4.78;2.55;;;;;;;42.61;15.86;101276.53;4967433;28;20054;-85
2022/08/25 10:38:10;;;;;;;4.13;2.30;;;;;;;41.80;16.82;101272.50;4955458;29;20027;-85
2022/08/25 10:40:51;;;;;;;4.22;2.10;;;;;;;40.75;17.99;101255.81;4973810;28;20448;-85
2022/08/25 10:43:39;;;;;;;3.20;2.53;;;;;;;39.34;18.33;101264.19;4961529;28;20103;-87
2022/08/25 10:46:16;;;;;;;4.25;2.50;;;;;;;38.03;20.03;101250.72;4965381;28;20114;-86
2022/08/25 10:49:07;;;;;;;2.60;2.22;;;;;;;37.81;20.03;101250.56;4958648;28;20039;-86
2022/08/25 10:51:47;;;;;;;3.60;2.70;;;;;;;39.23;19.21;101262.38;4966919;28;20034;-86
2022/08/25 10:54:44;;;;;;;5.18;2.85;;;;;;;40.06;18.38;101254.69;4967831;28;20066;-86
2022/08/25 10:57:30;;;;;;;6.05;2.80;;;;;;;40.21;17.73;101244.78;4974135;28;20130;-86
2022/08/25 11:00:08;;;;;;;4.50;2.70;;;;;;;40.49;17.87;101250.03;4961890;28;20377;-87
2022/08/25 11:03:14;;;;;;;3.92;2.40;;;;;;;41.58;17.14;101242.00;4951169;28;20037;-86
2022/08/25 11:05:52;;;;;;;2.95;2.53;;;;;;;42.74;15.93;101242.38;4970160;28;20125;-88
2022/08/25 11:08:25;;;;;;;4.57;2.75;;;;;;;43.97;14.89;101234.25;4971005;28;20105;-87
2022/08/25 11:11:08;;;;;;;4.47;2.60;;;;;;;44.91;15.54;101231.13;4968065;28;20049;-86
2022/08/25 11:13:39;;;;;;;4.82;2.70;;;;;;;45.45;13.95;101239.19;4967843;28;20031;-85
2022/08/25 11:16:14;;;;;;;4.53;2.40;;;;;;;46.36;13.89;101235.22;4949169;28;20054;-86
2022/08/25 11:18:49;;;;;;;3.90;2.00;;;;;;;47.11;12.81;101228.41;4965231;28;20078;-86
2022/08/25 11:21:42;;;;;;;3.40;2.53;;;;;;;47.98;13.73;101220.78;4968426;28;20023;-86
2022/08/25 11:24:30;;;;;;;5.13;3.00;;;;;;;48.45;12.87;101222.13;4965513;28;20078;-86
2022/08/25 11:26:56;;;;;;;4.03;2.80;;;;;;;48.44;11.22;101222.44;4962118;28;20018;-85
2022/08/25 11:29:29;;;;;;;3.22;2.08;;;;;;;47.92;11.51;101213.63;4973369;28;20030;-85
2022/08/25 11:31:58;;;;;;;4.05;2.22;;;;;;;48.36;12.37;101207.09;4970878;28;20476;-85
2022/08/25 11:34:27;;;;;;;3.63;2.08;;;;;;;48.83;10.93;101210.34;4962841;28;20050;-86
2022/08/25 11:36:59;;;;;;;3.05;2.15;;;;;;;48.99;11.25;101207.88;4957491;28;20042;-87
2022/08/25 11:39:44;;;;;;;2.42;1.90;;;;;;;50.00;11.71;101219.97;4973963;28;20424;-85
2022/08/25 11:42:36;;;;;;;2.75;2.22;;;;;;;49.92;10.29;101213.19;4970043;28;20030;-86